This is the latest recevied weather packets stored in our database for station/object RN1M-13. If no packets are shown the sender has not sent any weather packets the latest 10 day(s).
| Time | Temp. | Humidity | Pressure | Rain* | Wind** | Luminosity | Snow |
|---|---|---|---|---|---|---|---|
| 1777792597 | 19.44° C | 62% | 1004.1 hPa | - | - | - | - |
| 1777791697 | 19.44° C | 68% | 1004.1 hPa | - | - | - | - |
| 1777790797 | 18.89° C | 72% | 1004.1 hPa | - | - | - | - |
| 1777789897 | 17.22° C | 80% | 1004.5 hPa | - | - | - | - |
| 1777788997 | 18.33° C | 74% | 1004.6 hPa | - | - | - | - |
| 1777788097 | 16.11° C | 94% | 1005 hPa | - | - | - | - |
| 1777787197 | 16.67° C | 88% | 1005.1 hPa | - | - | - | - |
| 1777786297 | 16.11° C | 100% | 1005.1 hPa | - | - | - | - |
| 1777785397 | 17.78° C | 85% | 1004.9 hPa | - | - | - | - |
| 1777784499 | 16.11° C | 100% | 1005.3 hPa | - | - | - | - |
| 1777783602 | 15.56° C | 100% | 1005.3 hPa | - | - | - | - |
| 1777782702 | 13.89° C | 100% | 1005.3 hPa | - | - | - | - |
| 1777781802 | 15.56° C | 100% | 1005.3 hPa | - | - | - | - |
| 1777780902 | 14.44° C | 100% | 1005.3 hPa | - | - | - | - |
| 1777780002 | 13.89° C | 100% | 1005.3 hPa | - | - | - | - |
| 1777779102 | 12.22° C | 100% | 1005.5 hPa | - | - | - | - |
| 1777778202 | 11.67° C | 100% | 1005.5 hPa | - | - | - | - |
| 1777777302 | 12.22° C | 100% | 1005.5 hPa | - | - | - | - |
| 1777776402 | 12.22° C | 100% | 1005.6 hPa | - | - | - | - |
| 1777775502 | 12.22° C | 100% | 1005.8 hPa | - | - | - | - |
| 1777774602 | 11.67° C | 100% | 1005.8 hPa | - | - | - | - |
| 1777773704 | 11.67° C | 100% | 1005.8 hPa | - | - | - | - |
| 1777772809 | 11.67° C | 100% | 1005.8 hPa | - | - | - | - |
| 1777771909 | 11.67° C | 100% | 1005.7 hPa | - | - | - | - |
| 1777771008 | 11.11° C | 100% | 1005.5 hPa | - | - | - | - |
* Rain since midnight (hover to see other rain measurements)
** Current wind speed in m/s (hover to see current wind gust speed)